Time,TemperatureF,DewpointF,PressureIn,WindDirection,WindDirectionDegrees,WindSpeedMPH,WindSpeedGustMPH,Humidity,HourlyPrecipIn,Conditions,Clouds,dailyrainin,SoftwareType,DateUTC
2013-01-01 00:01:00,54.5,26.7,29.94,North,0,4.9,4.9,34,0.00,,---,0.00,VWS V14.01,2013-01-01 08:01:00,
2013-01-01 00:04:00,16.5,12.8,30.41,South,180,0.0,0.0,85,0.00,,---,0.00,VWS V14.01,2013-01-01 08:04:00,
2013-01-01 00:09:00,16.5,13.1,30.41,South,180,0.0,0.0,86,0.00,,---,0.00,VWS V14.01,2013-01-01 08:09:00,
2013-01-01 00:14:00,16.7,13.2,30.41,South,180,0.0,0.0,86,0.00,,---,0.00,VWS V14.01,2013-01-01 08:14:00,
2013-01-01 00:19:00,16.9,13.4,30.41,SSW,202,0.0,0.0,86,0.00,,---,0.00,VWS V14.01,2013-01-01 08:19:00,
2013-01-01 00:24:00,17.6,14.4,30.39,SW,225,0.0,0.0,87,0.00,,---,0.00,VWS V14.01,2013-01-01 08:24:00,
2013-01-01 00:29:00,18.1,14.9,30.39,SW,225,1.3,1.3,87,0.00,,---,0.00,VWS V14.01,2013-01-01 08:29:00,
2013-01-01 00:34:00,18.7,15.7,30.41,SW,225,0.0,0.0,88,0.00,,---,0.00,VWS V14.01,2013-01-01 08:34:00,
2013-01-01 00:39:00,19.0,16.1,30.41,SSW,202,0.0,0.0,88,0.00,,---,0.00,VWS V14.01,2013-01-01 08:39:00,
2013-01-01 00:44:00,19.4,16.7,30.41,SSW,202,0.0,0.0,89,0.00,,---,0.00,VWS V14.01,2013-01-01 08:44:00,
2013-01-01 00:49:00,19.6,16.6,30.39,SSW,202,0.0,0.0,88,0.00,,---,0.00,VWS V14.01,2013-01-01 08:49:00,
2013-01-01 00:55:00,19.6,16.6,30.39,South,180,0.0,0.0,88,0.00,,---,0.00,VWS V14.01,2013-01-01 08:55:00,
2013-01-01 01:00:00,19.4,16.4,30.39,SSE,158,0.0,0.0,88,0.00,,---,0.00,VWS V14.01,2013-01-01 09:00:00,
2013-01-01 01:05:00,19.4,16.4,30.41,North,0,0.0,0.0,88,0.00,,---,0.00,VWS V14.01,2013-01-01 09:05:00,
2013-01-01 01:10:00,19.4,16.4,30.41,ENE,68,0.0,0.0,88,0.00,,---,0.00,VWS V14.01,2013-01-01 09:10:00,
2013-01-01 01:15:00,19.8,17.0,30.41,East,90,0.0,0.0,89,0.00,,---,0.00,VWS V14.01,2013-01-01 09:15:00,
2013-01-01 01:20:00,19.9,17.2,30.41,North,0,2.5,2.5,89,0.00,,---,0.00,VWS V14.01,2013-01-01 09:20:00,
2013-01-01 01:25:00,20.1,17.4,30.41,North,0,2.7,2.7,89,0.00,,---,0.00,VWS V14.01,2013-01-01 09:25:00,
2013-01-01 01:30:00,19.4,16.4,30.41,North,0,2.5,2.5,88,0.00,,---,0.00,VWS V14.01,2013-01-01 09:30:00,
2013-01-01 01:35:00,19.0,15.6,30.41,NNE,22,0.0,0.0,86,0.00,,---,0.00,VWS V14.01,2013-01-01 09:35:00,
2013-01-01 01:40:00,18.5,14.8,30.41,WNW,292,1.3,1.3,85,0.00,,---,0.00,VWS V14.01,2013-01-01 09:40:00,
2013-01-01 01:45:00,18.3,14.6,30.41,WNW,292,1.3,1.3,85,0.00,,---,0.00,VWS V14.01,2013-01-01 09:45:00,
2013-01-01 01:50:00,18.1,14.4,30.41,WNW,292,0.0,0.0,85,0.00,,---,0.00,VWS V14.01,2013-01-01 09:50:00,
2013-01-01 01:55:00,18.1,14.7,30.41,WNW,292,2.9,2.9,86,0.00,,---,0.00,VWS V14.01,2013-01-01 09:55:00,
2013-01-01 02:01:00,18.5,15.0,30.41,WNW,292,0.0,0.0,86,0.00,,---,0.00,VWS V14.01,2013-01-01 10:01:00,
2013-01-01 02:06:00,18.7,15.5,30.41,West,270,1.3,1.3,87,0.00,,---,0.00,VWS V14.01,2013-01-01 10:06:00,
2013-01-01 02:11:00,19.0,15.8,30.41,West,270,0.0,0.0,87,0.00,,---,0.00,VWS V14.01,2013-01-01 10:11:00,
2013-01-01 02:16:00,19.6,16.6,30.41,West,270,0.0,0.0,88,0.00,,---,0.00,VWS V14.01,2013-01-01 10:16:00,
2013-01-01 02:21:00,19.8,16.8,30.44,WSW,248,2.9,2.9,88,0.00,,---,0.00,VWS V14.01,2013-01-01 10:21:00,
2013-01-01 02:26:00,19.8,16.8,30.44,WSW,248,1.6,1.6,88,0.00,,---,0.00,VWS V14.01,2013-01-01 10:26:00,
2013-01-01 02:31:00,19.9,17.0,30.44,West,270,3.1,3.1,88,0.00,,---,0.00,VWS V14.01,2013-01-01 10:31:00,
2013-01-01 02:36:00,19.9,17.0,30.44,SW,225,2.9,2.9,88,0.00,,---,0.00,VWS V14.01,2013-01-01 10:36:00,
2013-01-01 02:41:00,19.9,17.0,30.44,West,270,2.5,2.5,88,0.00,,---,0.00,VWS V14.01,2013-01-01 10:41:00,
2013-01-01 02:46:00,19.9,17.0,30.44,SSW,202,1.3,1.3,88,0.00,,---,0.00,VWS V14.01,2013-01-01 10:46:00,
2013-01-01 02:51:00,19.9,17.0,30.44,WSW,248,1.6,1.6,88,0.00,,---,0.00,VWS V14.01,2013-01-01 10:51:00,
2013-01-01 02:56:00,19.9,17.0,30.44,West,270,2.5,2.5,88,0.00,,---,0.00,VWS V14.01,2013-01-01 10:56:00,
2013-01-01 03:01:00,19.8,16.5,30.44,West,270,2.5,2.5,87,0.00,,---,0.00,VWS V14.01,2013-01-01 11:01:00,
2013-01-01 03:06:00,19.8,16.5,30.44,WSW,248,2.0,2.0,87,0.00,,---,0.00,VWS V14.01,2013-01-01 11:06:00,
2013-01-01 03:11:00,19.8,16.5,30.44,West,270,2.0,2.0,87,0.00,,---,0.00,VWS V14.01,2013-01-01 11:11:00,
2013-01-01 03:16:00,19.6,16.4,30.44,WNW,292,2.0,2.0,87,0.00,,---,0.00,VWS V14.01,2013-01-01 11:16:00,
2013-01-01 03:21:00,19.6,16.1,30.47,WSW,248,2.5,2.5,86,0.00,,---,0.00,VWS V14.01,2013-01-01 11:21:00,
2013-01-01 03:27:00,19.6,16.1,30.47,West,270,1.6,1.6,86,0.00,,---,0.00,VWS V14.01,2013-01-01 11:27:00,
2013-01-01 03:32:00,19.4,15.9,30.47,WSW,248,0.0,0.0,86,0.00,,---,0.00,VWS V14.01,2013-01-01 11:32:00,
2013-01-01 03:37:00,19.4,15.9,30.47,WNW,292,2.7,2.7,86,0.00,,---,0.00,VWS V14.01,2013-01-01 11:37:00,
2013-01-01 03:42:00,19.4,15.9,30.47,West,270,2.2,2.2,86,0.00,,---,0.00,VWS V14.01,2013-01-01 11:42:00,
2013-01-01 03:47:00,19.4,15.9,30.47,WNW,292,0.0,0.0,86,0.00,,---,0.00,VWS V14.01,2013-01-01 11:47:00,
2013-01-01 03:52:00,19.6,16.1,30.44,NW,315,1.3,1.3,86,0.00,,---,0.00,VWS V14.01,2013-01-01 11:52:00,
2013-01-01 03:57:00,19.6,15.8,30.44,WNW,292,0.0,0.0,85,0.00,,---,0.00,VWS V14.01,2013-01-01 11:57:00,
2013-01-01 04:02:00,19.6,15.8,30.44,NW,315,1.6,1.6,85,0.00,,---,0.00,VWS V14.01,2013-01-01 12:02:00,
2013-01-01 04:07:00,19.8,16.3,30.47,NW,315,0.0,0.0,86,0.00,,---,0.00,VWS V14.01,2013-01-01 12:07:00,
2013-01-01 04:12:00,19.8,16.0,30.47,NW,315,0.0,0.0,85,0.00,,---,0.00,VWS V14.01,2013-01-01 12:12:00,
2013-01-01 04:17:00,19.8,16.0,30.47,WSW,248,0.0,0.0,85,0.00,,---,0.00,VWS V14.01,2013-01-01 12:17:00,
2013-01-01 04:22:00,19.9,16.4,30.47,SW,225,0.0,0.0,86,0.00,,---,0.00,VWS V14.01,2013-01-01 12:22:00,
2013-01-01 04:27:00,19.9,16.4,30.47,WSW,248,1.6,1.6,86,0.00,,---,0.00,VWS V14.01,2013-01-01 12:27:00,
2013-01-01 04:37:00,20.1,16.6,30.47,West,270,0.0,0.0,86,0.00,,---,0.00,VWS V14.01,2013-01-01 12:37:00,
2013-01-01 04:42:00,20.3,16.8,30.47,West,270,0.0,0.0,86,0.00,,---,0.00,VWS V14.01,2013-01-01 12:42:00,
2013-01-01 04:47:00,20.3,16.8,30.47,West,270,0.0,0.0,86,0.00,,---,0.00,VWS V14.01,2013-01-01 12:47:00,
2013-01-01 04:52:00,20.3,16.8,30.47,SSW,202,0.0,0.0,86,0.00,,---,0.00,VWS V14.01,2013-01-01 12:52:00,
2013-01-01 04:57:00,20.5,17.0,30.47,SSE,158,1.3,1.3,86,0.00,,---,0.00,VWS V14.01,2013-01-01 12:57:00,
2013-01-01 05:02:00,20.5,17.0,30.47,NNE,22,1.6,1.6,86,0.00,,---,0.00,VWS V14.01,2013-01-01 13:02:00,
2013-01-01 05:07:00,20.5,17.0,30.47,NE,45,0.0,0.0,86,0.00,,---,0.00,VWS V14.01,2013-01-01 13:07:00,
2013-01-01 05:12:00,20.7,17.1,30.47,SSE,158,0.0,0.0,86,0.00,,---,0.00,VWS V14.01,2013-01-01 13:12:00,
2013-01-01 05:17:00,20.7,16.9,30.47,ESE,112,0.0,0.0,85,0.00,,---,0.00,VWS V14.01,2013-01-01 13:17:00,
2013-01-01 05:22:00,20.7,17.1,30.44,SSE,158,1.1,1.1,86,0.00,,---,0.00,VWS V14.01,2013-01-01 13:22:00,
2013-01-01 05:27:00,20.7,17.1,30.44,SSE,158,0.0,0.0,86,0.00,,---,0.00,VWS V14.01,2013-01-01 13:27:00,
2013-01-01 05:33:00,20.8,17.3,30.44,NNW,338,0.0,0.0,86,0.00,,---,0.00,VWS V14.01,2013-01-01 13:33:00,
2013-01-01 05:38:00,20.8,17.3,30.44,NNW,338,0.0,0.0,86,0.00,,---,0.00,VWS V14.01,2013-01-01 13:38:00,
2013-01-01 05:43:00,20.8,17.3,30.44,NNW,338,0.0,0.0,86,0.00,,---,0.00,VWS V14.01,2013-01-01 13:43:00,
2013-01-01 05:48:00,20.8,17.3,30.44,North,0,0.0,0.0,86,0.00,,---,0.00,VWS V14.01,2013-01-01 13:48:00,
2013-01-01 05:53:00,21.0,17.5,30.47,North,0,0.0,0.0,86,0.00,,---,0.00,VWS V14.01,2013-01-01 13:53:00,
2013-01-01 05:58:00,21.0,17.5,30.47,North,0,0.0,0.0,86,0.00,,---,0.00,VWS V14.01,2013-01-01 13:58:00,
2013-01-01 06:03:00,21.2,17.7,30.47,SSE,158,0.0,0.0,86,0.00,,---,0.00,VWS V14.01,2013-01-01 14:03:00,
2013-01-01 06:08:00,21.2,17.7,30.44,SSE,158,0.0,0.0,86,0.00,,---,0.00,VWS V14.01,2013-01-01 14:08:00,
2013-01-01 06:13:00,21.2,17.7,30.44,SSE,158,0.0,0.0,86,0.00,,---,0.00,VWS V14.01,2013-01-01 14:13:00,
2013-01-01 06:18:00,21.2,17.7,30.44,SSE,158,0.0,0.0,86,0.00,,---,0.00,VWS V14.01,2013-01-01 14:18:00,
2013-01-01 06:23:00,21.2,17.7,30.44,SSW,202,0.0,0.0,86,0.00,,---,0.00,VWS V14.01,2013-01-01 14:23:00,
2013-01-01 06:28:00,21.2,17.7,30.44,SW,225,0.0,0.0,86,0.00,,---,0.00,VWS V14.01,2013-01-01 14:28:00,
2013-01-01 06:33:00,21.4,17.6,30.44,SW,225,0.0,0.0,85,0.00,,---,0.00,VWS V14.01,2013-01-01 14:33:00,
2013-01-01 06:38:00,21.4,17.6,30.44,SW,225,0.0,0.0,85,0.00,,---,0.00,VWS V14.01,2013-01-01 14:38:00,
2013-01-01 06:43:00,21.4,17.6,30.44,SW,225,0.0,0.0,85,0.00,,---,0.00,VWS V14.01,2013-01-01 14:43:00,
2013-01-01 06:49:00,21.4,17.6,30.44,SW,225,0.0,0.0,85,0.00,,---,0.00,VWS V14.01,2013-01-01 14:49:00,
2013-01-01 06:54:00,21.4,17.6,30.44,SW,225,0.0,0.0,85,0.00,,---,0.00,VWS V14.01,2013-01-01 14:54:00,
2013-01-01 06:59:00,21.6,17.8,30.44,NW,315,0.0,0.0,85,0.00,,---,0.00,VWS V14.01,2013-01-01 14:59:00,
2013-01-01 07:04:00,21.6,17.8,30.44,WNW,292,0.0,0.0,85,0.00,,---,0.00,VWS V14.01,2013-01-01 15:04:00,
2013-01-01 07:09:00,21.7,17.9,30.44,WNW,292,0.0,0.0,85,0.00,,---,0.00,VWS V14.01,2013-01-01 15:09:00,
2013-01-01 07:14:00,21.7,17.9,30.44,West,270,0.0,0.0,85,0.00,,---,0.00,VWS V14.01,2013-01-01 15:14:00,
2013-01-01 07:19:00,21.7,17.9,30.44,WNW,292,0.0,0.0,85,0.00,,---,0.00,VWS V14.01,2013-01-01 15:19:00,
2013-01-01 07:24:00,21.9,18.1,30.44,WNW,292,0.0,0.0,85,0.00,,---,0.00,VWS V14.01,2013-01-01 15:24:00,
2013-01-01 07:29:00,21.9,18.1,30.44,WSW,248,0.0,0.0,85,0.00,,---,0.00,VWS V14.01,2013-01-01 15:29:00,
2013-01-01 07:34:00,21.9,18.1,30.44,WSW,248,0.0,0.0,85,0.00,,---,0.00,VWS V14.01,2013-01-01 15:34:00,
2013-01-01 07:39:00,21.9,18.1,30.44,WSW,248,0.0,0.0,85,0.00,,---,0.00,VWS V14.01,2013-01-01 15:39:00,
2013-01-01 07:44:00,21.9,18.1,30.44,West,270,1.6,1.6,85,0.00,,---,0.00,VWS V14.01,2013-01-01 15:44:00,
2013-01-01 07:50:00,21.9,18.1,30.44,WNW,292,2.0,2.0,85,0.00,,---,0.00,VWS V14.01,2013-01-01 15:50:00,
2013-01-01 07:55:00,22.1,18.3,30.44,West,270,1.6,1.6,85,0.00,,---,0.00,VWS V14.01,2013-01-01 15:55:00,
2013-01-01 08:00:00,22.3,18.5,30.44,WSW,248,0.0,0.0,85,0.00,,---,0.00,VWS V14.01,2013-01-01 16:00:00,
2013-01-01 08:05:00,22.3,18.7,30.44,NNW,338,1.1,1.1,86,0.00,,---,0.00,VWS V14.01,2013-01-01 16:05:00,
2013-01-01 08:10:00,22.5,18.9,30.44,NW,315,0.0,0.0,86,0.00,,---,0.00,VWS V14.01,2013-01-01 16:10:00,
2013-01-01 08:15:00,22.6,19.1,30.44,WNW,292,0.0,0.0,86,0.00,,---,0.00,VWS V14.01,2013-01-01 16:15:00,
2013-01-01 08:20:00,22.8,19.3,30.44,West,270,0.0,0.0,86,0.00,,---,0.00,VWS V14.01,2013-01-01 16:20:00,
2013-01-01 08:25:00,23.0,19.5,30.44,WSW,248,0.0,0.0,86,0.00,,---,0.00,VWS V14.01,2013-01-01 16:25:00,
2013-01-01 08:30:00,23.0,19.5,30.44,WSW,248,0.0,0.0,86,0.00,,---,0.00,VWS V14.01,2013-01-01 16:30:00,
2013-01-01 08:35:00,23.2,19.6,30.44,West,270,0.0,0.0,86,0.00,,---,0.00,VWS V14.01,2013-01-01 16:35:00,
2013-01-01 08:40:00,23.4,19.8,30.44,WSW,248,1.3,1.3,86,0.00,,---,0.00,VWS V14.01,2013-01-01 16:40:00,
2013-01-01 08:45:00,23.5,19.7,30.44,WSW,248,2.2,2.2,85,0.00,,---,0.00,VWS V14.01,2013-01-01 16:45:00,
2013-01-01 08:51:00,23.5,19.7,30.44,WSW,248,0.0,0.0,85,0.00,,---,0.00,VWS V14.01,2013-01-01 16:51:00,
2013-01-01 08:56:00,23.7,19.9,30.44,WSW,248,0.0,0.0,85,0.00,,---,0.00,VWS V14.01,2013-01-01 16:56:00,
2013-01-01 09:01:00,23.9,20.1,30.44,WSW,248,0.0,0.0,85,0.00,,---,0.00,VWS V14.01,2013-01-01 17:01:00,
2013-01-01 09:06:00,24.1,20.2,30.47,WSW,248,0.0,0.0,85,0.00,,---,0.00,VWS V14.01,2013-01-01 17:06:00,
2013-01-01 09:11:00,24.3,20.1,30.47,SSE,158,0.0,0.0,84,0.00,,---,0.00,VWS V14.01,2013-01-01 17:11:00,
2013-01-01 09:16:00,24.4,20.3,30.47,SSE,158,0.0,0.0,84,0.00,,---,0.00,VWS V14.01,2013-01-01 17:16:00,
2013-01-01 09:21:00,24.4,20.3,30.47,North,0,0.9,0.9,84,0.00,,---,0.00,VWS V14.01,2013-01-01 17:21:00,
2013-01-01 09:26:00,24.6,20.5,30.47,North,0,0.0,0.0,84,0.00,,---,0.00,VWS V14.01,2013-01-01 17:26:00,
2013-01-01 09:31:00,24.8,20.7,30.47,NW,315,1.6,1.6,84,0.00,,---,0.00,VWS V14.01,2013-01-01 17:31:00,
2013-01-01 09:36:00,25.0,20.6,30.47,West,270,0.0,0.0,83,0.00,,---,0.00,VWS V14.01,2013-01-01 17:36:00,
2013-01-01 09:41:00,25.0,20.6,30.47,West,270,1.1,1.1,83,0.00,,---,0.00,VWS V14.01,2013-01-01 17:41:00,
2013-01-01 09:46:00,25.0,20.6,30.47,WNW,292,2.7,2.7,83,0.00,,---,0.00,VWS V14.01,2013-01-01 17:46:00,
2013-01-01 09:51:00,25.0,20.0,30.47,West,270,2.5,2.5,81,0.00,,---,0.00,VWS V14.01,2013-01-01 17:51:00,
2013-01-01 09:56:00,25.2,19.9,30.47,WSW,248,1.3,1.3,80,0.00,,---,0.00,VWS V14.01,2013-01-01 17:56:00,
2013-01-01 10:02:00,25.0,19.1,30.47,WSW,248,2.5,2.5,78,0.00,,---,0.00,VWS V14.01,2013-01-01 18:02:00,
2013-01-01 10:07:00,25.2,19.0,30.47,SW,225,2.0,2.0,77,0.00,,---,0.00,VWS V14.01,2013-01-01 18:07:00,
2013-01-01 10:12:00,25.2,19.0,30.47,West,270,2.5,2.5,77,0.00,,---,0.00,VWS V14.01,2013-01-01 18:12:00,
2013-01-01 10:17:00,25.3,19.1,30.47,WNW,292,2.9,2.9,77,0.00,,---,0.00,VWS V14.01,2013-01-01 18:17:00,
2013-01-01 10:22:00,25.5,19.0,30.47,WSW,248,1.1,1.1,76,0.00,,---,0.00,VWS V14.01,2013-01-01 18:22:00,
2013-01-01 10:27:00,25.5,19.0,30.47,WNW,292,3.1,3.1,76,0.00,,---,0.00,VWS V14.01,2013-01-01 18:27:00,
2013-01-01 10:32:00,25.7,18.9,30.47,WSW,248,2.5,2.5,75,0.00,,---,0.00,VWS V14.01,2013-01-01 18:32:00,
2013-01-01 10:37:00,25.9,19.4,30.47,WSW,248,2.5,2.5,76,0.00,,---,0.00,VWS V14.01,2013-01-01 18:37:00,
2013-01-01 10:42:00,26.1,19.2,30.47,West,270,1.1,1.1,75,0.00,,---,0.00,VWS V14.01,2013-01-01 18:42:00,
2013-01-01 10:47:00,26.2,19.4,30.47,West,270,2.0,2.0,75,0.00,,---,0.00,VWS V14.01,2013-01-01 18:47:00,
2013-01-01 10:52:00,26.2,19.4,30.47,WSW,248,0.9,0.9,75,0.00,,---,0.00,VWS V14.01,2013-01-01 18:52:00,
2013-01-01 10:58:00,26.4,19.3,30.47,SW,225,1.6,1.6,74,0.00,,---,0.00,VWS V14.01,2013-01-01 18:58:00,
2013-01-01 11:03:00,26.4,19.0,30.47,WSW,248,3.1,3.1,73,0.00,,---,0.00,VWS V14.01,2013-01-01 19:03:00,
2013-01-01 11:08:00,26.6,18.5,30.47,WSW,248,2.5,2.5,71,0.00,,---,0.00,VWS V14.01,2013-01-01 19:08:00,
2013-01-01 11:13:00,26.6,17.8,30.47,WSW,248,3.4,3.4,69,0.00,,---,0.00,VWS V14.01,2013-01-01 19:13:00,
2013-01-01 11:18:00,26.6,17.8,30.47,WSW,248,3.4,3.4,69,0.00,,---,0.00,VWS V14.01,2013-01-01 19:18:00,
2013-01-01 11:23:00,26.6,17.1,30.47,West,270,4.7,4.7,67,0.00,,---,0.00,VWS V14.01,2013-01-01 19:23:00,
2013-01-01 11:28:00,26.8,17.3,30.47,West,270,2.5,2.5,67,0.00,,---,0.00,VWS V14.01,2013-01-01 19:28:00,
2013-01-01 11:33:00,27.0,17.8,30.47,West,270,2.0,2.0,68,0.00,,---,0.00,VWS V14.01,2013-01-01 19:33:00,
2013-01-01 11:38:00,27.0,17.5,30.50,West,270,3.1,3.1,67,0.00,,---,0.00,VWS V14.01,2013-01-01 19:38:00,
2013-01-01 11:43:00,26.8,17.0,30.50,WSW,248,2.0,2.0,66,0.00,,---,0.00,VWS V14.01,2013-01-01 19:43:00,
2013-01-01 11:48:00,26.6,16.8,30.47,WNW,292,2.7,2.7,66,0.00,,---,0.00,VWS V14.01,2013-01-01 19:48:00,
2013-01-01 11:53:00,26.6,16.8,30.47,WNW,292,2.2,2.2,66,0.00,,---,0.00,VWS V14.01,2013-01-01 19:53:00,
2013-01-01 11:58:00,26.6,16.8,30.47,NNW,338,2.0,2.0,66,0.00,,---,0.00,VWS V14.01,2013-01-01 19:58:00,
2013-01-01 12:03:00,26.4,17.0,30.47,West,270,2.5,2.5,67,0.00,,---,0.00,VWS V14.01,2013-01-01 20:03:00,
2013-01-01 12:08:00,26.4,17.0,30.47,NNW,338,1.1,1.1,67,0.00,,---,0.00,VWS V14.01,2013-01-01 20:08:00,
2013-01-01 12:14:00,26.4,17.3,30.47,WSW,248,0.0,0.0,68,0.00,,---,0.00,VWS V14.01,2013-01-01 20:14:00,
2013-01-01 12:19:00,26.4,17.6,30.47,WNW,292,1.6,1.6,69,0.00,,---,0.00,VWS V14.01,2013-01-01 20:19:00,
2013-01-01 12:24:00,26.2,16.8,30.47,WSW,248,0.9,0.9,67,0.00,,---,0.00,VWS V14.01,2013-01-01 20:24:00,
2013-01-01 12:29:00,26.2,17.5,30.47,WNW,292,0.0,0.0,69,0.00,,---,0.00,VWS V14.01,2013-01-01 20:29:00,
2013-01-01 12:34:00,26.1,17.3,30.47,WSW,248,2.5,2.5,69,0.00,,---,0.00,VWS V14.01,2013-01-01 20:34:00,
2013-01-01 12:39:00,26.1,17.3,30.47,WNW,292,1.1,1.1,69,0.00,,---,0.00,VWS V14.01,2013-01-01 20:39:00,
2013-01-01 12:44:00,26.1,17.3,30.47,SW,225,0.0,0.0,69,0.00,,---,0.00,VWS V14.01,2013-01-01 20:44:00,
2013-01-01 12:49:00,26.1,17.6,30.47,SSE,158,0.0,0.0,70,0.00,,---,0.00,VWS V14.01,2013-01-01 20:49:00,
2013-01-01 12:54:00,26.2,17.8,30.47,SW,225,2.0,2.0,70,0.00,,---,0.00,VWS V14.01,2013-01-01 20:54:00,
2013-01-01 12:59:00,26.2,17.8,30.47,WSW,248,0.0,0.0,70,0.00,,---,0.00,VWS V14.01,2013-01-01 20:59:00,
2013-01-01 13:04:00,26.1,17.6,30.47,WNW,292,3.8,3.8,70,0.00,,---,0.00,VWS V14.01,2013-01-01 21:04:00,
2013-01-01 13:09:00,26.1,17.6,30.47,WSW,248,2.5,2.5,70,0.00,,---,0.00,VWS V14.01,2013-01-01 21:09:00,
2013-01-01 13:15:00,26.1,17.6,30.47,WNW,292,0.0,0.0,70,0.00,,---,0.00,VWS V14.01,2013-01-01 21:15:00,
2013-01-01 13:20:00,26.1,17.6,30.47,West,270,0.0,0.0,70,0.00,,---,0.00,VWS V14.01,2013-01-01 21:20:00,
2013-01-01 13:25:00,26.1,17.3,30.47,West,270,0.0,0.0,69,0.00,,---,0.00,VWS V14.01,2013-01-01 21:25:00,
2013-01-01 13:30:00,26.1,17.3,30.47,NW,315,1.6,1.6,69,0.00,,---,0.00,VWS V14.01,2013-01-01 21:30:00,
2013-01-01 13:35:00,26.2,17.8,30.47,WNW,292,0.0,0.0,70,0.00,,---,0.00,VWS V14.01,2013-01-01 21:35:00,
2013-01-01 13:40:00,26.2,17.8,30.47,WNW,292,0.0,0.0,70,0.00,,---,0.00,VWS V14.01,2013-01-01 21:40:00,
2013-01-01 13:45:00,26.2,17.8,30.47,WNW,292,0.0,0.0,70,0.00,,---,0.00,VWS V14.01,2013-01-01 21:45:00,
2013-01-01 13:50:00,26.2,17.8,30.47,ENE,68,1.3,1.3,70,0.00,,---,0.00,VWS V14.01,2013-01-01 21:50:00,
2013-01-01 13:55:00,26.1,17.6,30.47,ESE,112,1.6,1.6,70,0.00,,---,0.00,VWS V14.01,2013-01-01 21:55:00,
2013-01-01 14:00:00,26.1,17.6,30.47,East,90,0.0,0.0,70,0.00,,---,0.00,VWS V14.01,2013-01-01 22:00:00,
2013-01-01 14:06:00,26.1,17.6,30.47,NW,315,0.0,0.0,70,0.00,,---,0.00,VWS V14.01,2013-01-01 22:06:00,
2013-01-01 14:11:00,26.1,17.6,30.47,WNW,292,0.0,0.0,70,0.00,,---,0.00,VWS V14.01,2013-01-01 22:11:00,
2013-01-01 14:16:00,26.1,17.6,30.47,NW,315,0.0,0.0,70,0.00,,---,0.00,VWS V14.01,2013-01-01 22:16:00,
2013-01-01 14:21:00,25.9,17.5,30.47,NNW,338,2.7,2.7,70,0.00,,---,0.00,VWS V14.01,2013-01-01 22:21:00,
2013-01-01 14:26:00,25.9,17.8,30.47,West,270,2.7,2.7,71,0.00,,---,0.00,VWS V14.01,2013-01-01 22:26:00,
2013-01-01 14:31:00,25.9,17.5,30.47,West,270,1.3,1.3,70,0.00,,---,0.00,VWS V14.01,2013-01-01 22:31:00,
2013-01-01 14:36:00,25.9,17.5,30.47,WSW,248,0.0,0.0,70,0.00,,---,0.00,VWS V14.01,2013-01-01 22:36:00,
2013-01-01 14:41:00,25.7,17.6,30.47,WSW,248,2.0,2.0,71,0.00,,---,0.00,VWS V14.01,2013-01-01 22:41:00,
2013-01-01 14:46:00,25.7,17.6,30.47,WSW,248,0.0,0.0,71,0.00,,---,99.99,VWS V14.01,2013-01-01 22:46:00,
2013-01-01 14:51:00,25.7,17.6,30.47,WSW,248,0.0,0.0,71,0.00,,---,99.99,VWS V14.01,2013-01-01 22:51:00,
2013-01-01 14:56:00,25.5,17.4,30.47,WSW,248,2.7,2.7,71,0.00,,---,99.99,VWS V14.01,2013-01-01 22:56:00,
2013-01-01 15:01:00,25.5,17.4,30.47,WSW,248,0.0,0.0,71,0.00,,---,99.99,VWS V14.01,2013-01-01 23:01:00,
2013-01-01 15:07:00,25.5,17.4,30.47,WSW,248,0.0,0.0,71,0.00,,---,99.99,VWS V14.01,2013-01-01 23:07:00,
2013-01-01 15:12:00,25.5,17.4,30.47,WSW,248,3.1,3.1,71,0.00,,---,99.99,VWS V14.01,2013-01-01 23:12:00,
2013-01-01 15:17:00,25.3,17.3,30.47,WNW,292,0.0,0.0,71,0.00,,---,99.99,VWS V14.01,2013-01-01 23:17:00,
2013-01-01 15:22:00,25.3,17.3,30.47,SW,225,0.0,0.0,71,0.00,,---,99.99,VWS V14.01,2013-01-01 23:22:00,
2013-01-01 15:27:00,25.3,17.3,30.47,WSW,248,1.6,1.6,71,0.00,,---,99.99,VWS V14.01,2013-01-01 23:27:00,
2013-01-01 15:32:00,25.3,17.3,30.47,West,270,2.2,2.2,71,0.00,,---,99.99,VWS V14.01,2013-01-01 23:32:00,
2013-01-01 15:37:00,25.3,17.3,30.47,SW,225,0.0,0.0,71,0.00,,---,99.99,VWS V14.01,2013-01-01 23:37:00,
2013-01-01 15:42:00,25.3,17.3,30.47,SW,225,1.6,1.6,71,0.00,,---,99.99,VWS V14.01,2013-01-01 23:42:00,
2013-01-01 15:47:00,25.3,17.3,30.47,WSW,248,1.1,1.1,71,0.00,,---,99.99,VWS V14.01,2013-01-01 23:47:00,
2013-01-01 15:52:00,25.3,17.6,30.47,SSE,158,1.1,1.1,72,0.00,,---,99.99,VWS V14.01,2013-01-01 23:52:00,
2013-01-01 15:57:00,25.2,17.1,30.47,SSW,202,0.0,0.0,71,0.00,,---,99.99,VWS V14.01,2013-01-01 23:57:00,
2013-01-01 16:03:00,25.2,17.4,30.47,WNW,292,0.0,0.0,72,0.00,,---,99.99,VWS V14.01,2013-01-02 00:03:00,
2013-01-01 16:08:00,25.2,17.4,30.47,NW,315,0.0,0.0,72,0.00,,---,99.99,VWS V14.01,2013-01-02 00:08:00,
2013-01-01 16:13:00,25.2,17.4,30.47,East,90,1.1,1.1,72,0.00,,---,99.99,VWS V14.01,2013-01-02 00:13:00,
2013-01-01 16:18:00,25.2,17.4,30.47,SSE,158,0.0,0.0,72,0.00,,---,99.99,VWS V14.01,2013-01-02 00:18:00,
2013-01-01 16:23:00,25.2,17.4,30.50,WSW,248,3.1,3.1,72,0.00,,---,99.99,VWS V14.01,2013-01-02 00:23:00,
2013-01-01 16:28:00,25.2,17.4,30.50,SW,225,2.2,2.2,72,0.00,,---,99.99,VWS V14.01,2013-01-02 00:28:00,
2013-01-01 16:33:00,25.2,17.4,30.50,WNW,292,1.1,1.1,72,0.00,,---,99.99,VWS V14.01,2013-01-02 00:33:00,
2013-01-01 16:38:00,25.0,17.2,30.50,NW,315,2.0,2.0,72,0.00,,---,99.99,VWS V14.01,2013-01-02 00:38:00,
2013-01-01 16:43:00,25.0,17.2,30.50,SW,225,0.0,0.0,72,0.00,,---,99.99,VWS V14.01,2013-01-02 00:43:00,
2013-01-01 16:48:00,25.0,17.2,30.50,ESE,112,0.0,0.0,72,0.00,,---,99.99,VWS V14.01,2013-01-02 00:48:00,
2013-01-01 16:53:00,25.0,17.2,30.50,East,90,2.7,2.7,72,0.00,,---,99.99,VWS V14.01,2013-01-02 00:53:00,
2013-01-01 16:59:00,25.0,17.2,30.50,ESE,112,0.0,0.0,72,0.00,,---,99.99,VWS V14.01,2013-01-02 00:59:00,
2013-01-01 17:04:00,25.0,17.2,30.50,SSE,158,2.0,2.0,72,0.00,,---,99.99,VWS V14.01,2013-01-02 01:04:00,
2013-01-01 17:16:00,25.0,17.2,30.50,West,270,2.0,2.0,72,0.00,,---,99.99,VWS V14.01,2013-01-02 01:16:00,